Record high temperature 37.4°C Record low temperature -14.6°C Record high gust 68.5 km/h Record high average 47.2 km/h Record daily rain 55.3 mm Record low windchill -17.5°C Record high barometer 1045.0 hPa Record low barometer 970.0 hPa
Daily high pressure 1013.0 hPa Daily low pressure 1011.0 hPa Daily low windchill 15.6°C Daily high heat index 25.0°C Daily high gust speed 10.4 kmh WNW Daily high average speed 7.2 kmh WNW

This page is updated from recent data collected by a WMR200 weather station Use the Reload or Refresh facility on your browser to retrieve the latest data.

Status report of weather station: Bienvenue sur la Station Météo de Godarville



Weather report/warning/Metars

Alexandroupoli Airport , Greece (LGAL) 40-51N 025-55E 3M
Jul 21, 2018 - 04:50 AM EDT / 2018.07.21 0850 UTC
Wind: from the SW (230 degrees) at 10 MPH (9 KT):0
Visibility: greater than 7 mile(s):0
Sky conditions: mostly clear
Temperature: 84 F (29 C)
Dew Point: 64 F (18 C)
Relative Humidity: 51%
Pressure (altimeter): 29.85 in. Hg (1011 hPa)
ob: LGAL 210850Z 23009KT 9999 FEW025 29/18 Q1011
cycle: 9

Charleroi / Gosselies, Belgium (EBCI) 50-28N 004-27E 192M
Jul 21, 2018 - 04:50 AM EDT / 2018.07.21 0850 UTC
Wind: from the WNW (300 degrees) at 3 MPH (3 KT) (direction variable):0
Visibility: greater than 7 mile(s):0
Sky conditions: mostly clear
Temperature: 71 F (22 C)
Dew Point: 55 F (13 C)
Relative Humidity: 56%
Pressure (altimeter): 29.91 in. Hg (1013 hPa)
ob: EBCI 210850Z 30003KT 200V360 9999 FEW025 22/13 Q1013 NOSIG
cycle: 9

Bruxelles National, Belgium (EBBR) 50-54N 004-32E 58M
Jul 21, 2018 - 04:50 AM EDT / 2018.07.21 0850 UTC
Wind: from the WNW (300 degrees) at 6 MPH (5 KT) (direction variable):0
Visibility: greater than 7 mile(s):0
Sky conditions: mostly clear
Temperature: 71 F (22 C)
Dew Point: 60 F (16 C)
Relative Humidity: 68%
Pressure (altimeter): 29.88 in. Hg (1012 hPa)
ob: EBBR 210850Z 30005KT 260V020 9999 FEW033 22/16 Q1012 NOSIG
cycle: 9

Koksijde, Belgium (EBFN) 51-05N 002-39E 9M
Jul 21, 2018 - 04:55 AM EDT / 2018.07.21 0855 UTC
Wind: from the NNW (340 degrees) at 8 MPH (7 KT):0
Visibility: greater than 7 mile(s):0
Sky conditions: mostly cloudy
Temperature: 68 F (20 C)
Dew Point: 57 F (14 C)
Relative Humidity: 68%
Pressure (altimeter): 29.91 in. Hg (1013 hPa)
ob: EBFN 210855Z 34007KT 9999 BKN070 BKN220 20/14 Q1013 BLU BLU
cycle: 9

Poznan, Poland (EPPO) 52-25N 016-50E 92M
Jul 21, 2018 - 05:00 AM EDT / 2018.07.21 0900 UTC
Wind: from the WNW (300 degrees) at 5 MPH (4 KT) (direction variable):0
Visibility: greater than 7 mile(s):0
Temperature: 73 F (23 C)
Dew Point: 53 F (12 C)
Relative Humidity: 49%
Pressure (altimeter): 29.88 in. Hg (1012 hPa)
ob: EPPO 210900Z 30004KT 280V360 CAVOK 23/12 Q1012 
cycle: 9



Coucher du Soleil:
21:43:46

Lever de Lune:
14:55:21 20/07/18

Coucher de Lune:
01:34:20 21/07/18

Premier Quartier 19 juillet 2018
Pleine Lune 27 juillet 2018
Dernier Quartier 4 août 2018
Nouvelle Lune 11 août 2018
Âge de lune : 8 jours,10 heures,54 minutes,61%
Les heures du jour possible étaient aujourd’hui 15:50